DLH250 EDDN-EDDH
Flight info
| Callsign | DLH250 |
|---|---|
| Flight time | 0h 57m |
| Altitude | 34000 |
| Route | SULUS1C SULUS L604 MASEK/N0437F330 DCT ELNAT/N0440F340 P605 NOLGO NOLGO3S |
| Aircraft | A319/M-SDE3FGHIRWY/LB1 |
Departure
| Time | 2026-04-20 01:52 |
|---|---|
| Airport | Nuremberg Airport (EDDN) |
Arrival
| Time | 2026-04-20 02:50 |
|---|---|
| Airport | Hamburg Helmut Schmidt Airport (EDDH) |
| Time | Latitude | Longitude | Altitude | Speed | Heading |
|---|---|---|---|---|---|
| 2026-04-20 01:33 | 49.49613 | 11.07923 | 1040 ft | 0 kts | 189° |
| 2026-04-20 01:47 | 49.49612 | 11.07923 | 1040 ft | 1 kts | 189° |
| 2026-04-20 01:47 | 49.49588 | 11.07911 | 1039 ft | 6 kts | 209° |
| 2026-04-20 01:47 | 49.49580 | 11.07860 | 1038 ft | 1 kts | 270° |
| 2026-04-20 01:47 | 49.49583 | 11.07826 | 1038 ft | 5 kts | 282° |
| 2026-04-20 01:48 | 49.49607 | 11.07773 | 1039 ft | 6 kts | 337° |
| 2026-04-20 01:48 | 49.49646 | 11.07770 | 1041 ft | 5 kts | 354° |
| 2026-04-20 01:48 | 49.49679 | 11.07744 | 1043 ft | 5 kts | 312° |
| 2026-04-20 01:48 | 49.49680 | 11.07706 | 1043 ft | 2 kts | 230° |
| 2026-04-20 01:49 | 49.49684 | 11.07676 | 1043 ft | 5 kts | 280° |
| 2026-04-20 01:49 | 49.49694 | 11.07594 | 1043 ft | 11 kts | 281° |
| 2026-04-20 01:49 | 49.49712 | 11.07439 | 1040 ft | 19 kts | 280° |
| 2026-04-20 01:49 | 49.49738 | 11.07213 | 1037 ft | 24 kts | 278° |
| 2026-04-20 01:50 | 49.49763 | 11.06959 | 1033 ft | 27 kts | 279° |
| 2026-04-20 01:50 | 49.49793 | 11.06649 | 1029 ft | 23 kts | 278° |
| 2026-04-20 01:50 | 49.49821 | 11.06545 | 1030 ft | 7 kts | 319° |
| 2026-04-20 01:50 | 49.49870 | 11.06505 | 1031 ft | 9 kts | 335° |
| 2026-04-20 01:51 | 49.49944 | 11.06479 | 1032 ft | 13 kts | 5° |
| 2026-04-20 01:51 | 49.49988 | 11.06585 | 1034 ft | 3 kts | 95° |
| 2026-04-20 01:51 | 49.49985 | 11.06627 | 1034 ft | 16 kts | 97° |
| 2026-04-20 01:51 | 49.49939 | 11.07070 | 1038 ft | 84 kts | 98° |
| 2026-04-20 01:52 | 49.49804 | 11.08398 | 1225 ft | 149 kts | 99° |
| 2026-04-20 01:52 | 49.49662 | 11.10122 | 1886 ft | 172 kts | 95° |
| 2026-04-20 01:52 | 49.49500 | 11.11956 | 2674 ft | 180 kts | 96° |
| 2026-04-20 01:52 | 49.49297 | 11.13976 | 3187 ft | 202 kts | 97° |
| 2026-04-20 01:53 | 49.49110 | 11.16228 | 3660 ft | 227 kts | 88° |
| 2026-04-20 01:53 | 49.49412 | 11.18751 | 4272 ft | 250 kts | 65° |
| 2026-04-20 01:53 | 49.50406 | 11.21026 | 5041 ft | 263 kts | 40° |
| 2026-04-20 01:53 | 49.51821 | 11.22795 | 6082 ft | 269 kts | 34° |
| 2026-04-20 01:54 | 49.53325 | 11.24622 | 7159 ft | 275 kts | 34° |
| 2026-04-20 01:54 | 49.54840 | 11.26469 | 8202 ft | 281 kts | 34° |
| 2026-04-20 01:54 | 49.56310 | 11.28247 | 9211 ft | 285 kts | 32° |
| 2026-04-20 01:54 | 49.58056 | 11.29652 | 10219 ft | 284 kts | 13° |
| 2026-04-20 01:55 | 49.59998 | 11.30127 | 11138 ft | 285 kts | 355° |
| 2026-04-20 01:55 | 49.62005 | 11.29600 | 11605 ft | 303 kts | 336° |
| 2026-04-20 01:55 | 49.63899 | 11.28072 | 12325 ft | 312 kts | 327° |
| 2026-04-20 01:55 | 49.65809 | 11.26414 | 13223 ft | 318 kts | 328° |
| 2026-04-20 01:56 | 49.67763 | 11.24762 | 14130 ft | 323 kts | 329° |
| 2026-04-20 01:56 | 49.69755 | 11.23097 | 14945 ft | 328 kts | 329° |
| 2026-04-20 01:56 | 49.71746 | 11.21431 | 15769 ft | 331 kts | 328° |
| 2026-04-20 01:56 | 49.73785 | 11.19724 | 16621 ft | 335 kts | 328° |
| 2026-04-20 01:57 | 49.75844 | 11.17989 | 17464 ft | 339 kts | 328° |
| 2026-04-20 01:57 | 49.77918 | 11.16233 | 18303 ft | 342 kts | 328° |
| 2026-04-20 01:57 | 49.80022 | 11.14448 | 19058 ft | 346 kts | 328° |
| 2026-04-20 01:57 | 49.82141 | 11.12648 | 19793 ft | 349 kts | 327° |
| 2026-04-20 01:58 | 49.84163 | 11.10566 | 20532 ft | 349 kts | 317° |
| 2026-04-20 01:58 | 49.85908 | 11.07964 | 21279 ft | 350 kts | 311° |
| 2026-04-20 01:58 | 49.87599 | 11.05222 | 22014 ft | 353 kts | 311° |
| 2026-04-20 01:58 | 49.89306 | 11.02456 | 22753 ft | 356 kts | 311° |
| 2026-04-20 01:59 | 49.91031 | 10.99664 | 23493 ft | 360 kts | 311° |
| 2026-04-20 01:59 | 49.92773 | 10.96843 | 24131 ft | 363 kts | 311° |
| 2026-04-20 01:59 | 49.94527 | 10.93998 | 24722 ft | 366 kts | 311° |
| 2026-04-20 01:59 | 49.96294 | 10.91132 | 25301 ft | 369 kts | 311° |
| 2026-04-20 02:00 | 49.98077 | 10.88245 | 25870 ft | 372 kts | 311° |
| 2026-04-20 02:00 | 49.99853 | 10.85371 | 26427 ft | 375 kts | 311° |
| 2026-04-20 02:00 | 50.01665 | 10.82431 | 26977 ft | 378 kts | 311° |
| 2026-04-20 02:00 | 50.03510 | 10.79429 | 27517 ft | 381 kts | 311° |
| 2026-04-20 02:01 | 50.05324 | 10.76469 | 28034 ft | 384 kts | 311° |
| 2026-04-20 02:01 | 50.07175 | 10.73456 | 28557 ft | 387 kts | 311° |
| 2026-04-20 02:01 | 50.09042 | 10.70417 | 29095 ft | 390 kts | 311° |
| 2026-04-20 02:01 | 50.10922 | 10.67352 | 29606 ft | 393 kts | 311° |
| 2026-04-20 02:02 | 50.12277 | 10.65132 | 29960 ft | 395 kts | 311° |
| 2026-04-20 02:02 | 50.14178 | 10.62006 | 30405 ft | 398 kts | 311° |
| 2026-04-20 02:02 | 50.16090 | 10.58861 | 30779 ft | 401 kts | 311° |
| 2026-04-20 02:02 | 50.18020 | 10.55686 | 31127 ft | 405 kts | 311° |
| 2026-04-20 02:03 | 50.19963 | 10.52486 | 31470 ft | 408 kts | 311° |
| 2026-04-20 02:03 | 50.21925 | 10.49247 | 31805 ft | 411 kts | 311° |
| 2026-04-20 02:03 | 50.23906 | 10.45992 | 32141 ft | 415 kts | 311° |
| 2026-04-20 02:03 | 50.25910 | 10.42754 | 32597 ft | 415 kts | 312° |
| 2026-04-20 02:04 | 50.27929 | 10.39525 | 33055 ft | 415 kts | 312° |
| 2026-04-20 02:04 | 50.29956 | 10.36295 | 33494 ft | 416 kts | 312° |
| 2026-04-20 02:04 | 50.31982 | 10.33061 | 33932 ft | 417 kts | 312° |
| 2026-04-20 02:04 | 50.33996 | 10.29828 | 34139 ft | 418 kts | 311° |
| 2026-04-20 02:05 | 50.35970 | 10.26580 | 34175 ft | 404 kts | 310° |
| 2026-04-20 02:05 | 50.37799 | 10.23297 | 34171 ft | 397 kts | 308° |
| 2026-04-20 02:05 | 50.41465 | 10.16885 | 34173 ft | 394 kts | 310° |
| 2026-04-20 02:06 | 50.45261 | 10.10678 | 34171 ft | 393 kts | 311° |
| 2026-04-20 02:06 | 50.48654 | 10.04996 | 34174 ft | 395 kts | 310° |
| 2026-04-20 02:07 | 50.50538 | 10.01774 | 34174 ft | 407 kts | 310° |
| 2026-04-20 02:07 | 50.52474 | 9.98438 | 34169 ft | 418 kts | 310° |
| 2026-04-20 02:07 | 50.56431 | 9.91442 | 34172 ft | 437 kts | 308° |
| 2026-04-20 02:08 | 50.60339 | 9.83978 | 34163 ft | 444 kts | 307° |
| 2026-04-20 02:08 | 50.64239 | 9.76404 | 34175 ft | 446 kts | 307° |
| 2026-04-20 02:09 | 50.68154 | 9.68899 | 34166 ft | 446 kts | 308° |
| 2026-04-20 02:09 | 50.70312 | 9.65364 | 34164 ft | 449 kts | 319° |
| 2026-04-20 02:09 | 50.72981 | 9.62755 | 34164 ft | 455 kts | 333° |
| 2026-04-20 02:10 | 50.76024 | 9.61291 | 34163 ft | 462 kts | 347° |
| 2026-04-20 02:10 | 50.79255 | 9.61094 | 34163 ft | 469 kts | 1° |
| 2026-04-20 02:10 | 50.85750 | 9.62302 | 34157 ft | 471 kts | 3° |
| 2026-04-20 02:11 | 50.92267 | 9.63573 | 34151 ft | 471 kts | 3° |
| 2026-04-20 02:11 | 50.98773 | 9.64850 | 34150 ft | 471 kts | 3° |
| 2026-04-20 02:12 | 51.05300 | 9.66131 | 34157 ft | 472 kts | 4° |
| 2026-04-20 02:12 | 51.11825 | 9.67402 | 34155 ft | 473 kts | 4° |
| 2026-04-20 02:13 | 51.18312 | 9.68673 | 34157 ft | 473 kts | 4° |
| 2026-04-20 02:13 | 51.24839 | 9.69900 | 34159 ft | 472 kts | 3° |
| 2026-04-20 02:14 | 51.31367 | 9.70932 | 34158 ft | 472 kts | 2° |
| 2026-04-20 02:14 | 51.37914 | 9.71934 | 34160 ft | 473 kts | 3° |
| 2026-04-20 02:15 | 51.44460 | 9.72975 | 34159 ft | 473 kts | 3° |
| 2026-04-20 02:15 | 51.51004 | 9.74091 | 34159 ft | 473 kts | 4° |
| 2026-04-20 02:16 | 51.57544 | 9.75353 | 34153 ft | 473 kts | 5° |
| 2026-04-20 02:16 | 51.64087 | 9.76639 | 34154 ft | 474 kts | 5° |
| 2026-04-20 02:17 | 51.70600 | 9.77887 | 34148 ft | 474 kts | 5° |
| 2026-04-20 02:17 | 51.77156 | 9.79131 | 34151 ft | 474 kts | 5° |
| 2026-04-20 02:18 | 51.83707 | 9.80371 | 34155 ft | 474 kts | 5° |
| 2026-04-20 02:18 | 51.90267 | 9.81629 | 34151 ft | 474 kts | 5° |
| 2026-04-20 02:19 | 51.96782 | 9.82900 | 34138 ft | 460 kts | 5° |
| 2026-04-20 02:19 | 51.99896 | 9.83512 | 34142 ft | 441 kts | 5° |
| 2026-04-20 02:19 | 52.02883 | 9.84096 | 34140 ft | 427 kts | 5° |
| 2026-04-20 02:20 | 52.08729 | 9.85225 | 34140 ft | 421 kts | 5° |
| 2026-04-20 02:20 | 52.14535 | 9.86357 | 34139 ft | 420 kts | 5° |
| 2026-04-20 02:21 | 52.20298 | 9.87485 | 33915 ft | 422 kts | 5° |
| 2026-04-20 02:21 | 52.23234 | 9.88056 | 33139 ft | 424 kts | 5° |
| 2026-04-20 02:21 | 52.26125 | 9.88863 | 32606 ft | 421 kts | 13° |
| 2026-04-20 02:22 | 52.28943 | 9.90092 | 32046 ft | 418 kts | 14° |
| 2026-04-20 02:22 | 52.31750 | 9.91328 | 31498 ft | 415 kts | 15° |
| 2026-04-20 02:22 | 52.34529 | 9.92554 | 30952 ft | 412 kts | 16° |
| 2026-04-20 02:22 | 52.37286 | 9.93773 | 30414 ft | 409 kts | 17° |
| 2026-04-20 02:23 | 52.40033 | 9.94988 | 29780 ft | 407 kts | 17° |
| 2026-04-20 02:23 | 52.42760 | 9.96194 | 29092 ft | 405 kts | 17° |
| 2026-04-20 02:23 | 52.45469 | 9.97390 | 28454 ft | 402 kts | 17° |
| 2026-04-20 02:23 | 52.48148 | 9.98573 | 28158 ft | 396 kts | 17° |
| 2026-04-20 02:24 | 52.50783 | 9.99739 | 27790 ft | 389 kts | 18° |
| 2026-04-20 02:24 | 52.53388 | 10.00894 | 27320 ft | 385 kts | 18° |
| 2026-04-20 02:24 | 52.55964 | 10.02036 | 26857 ft | 382 kts | 18° |
| 2026-04-20 02:24 | 52.58523 | 10.03175 | 26415 ft | 379 kts | 18° |
| 2026-04-20 02:25 | 52.61055 | 10.04306 | 25969 ft | 375 kts | 18° |
| 2026-04-20 02:25 | 52.63564 | 10.05427 | 25506 ft | 372 kts | 18° |
| 2026-04-20 02:25 | 52.66051 | 10.06541 | 25074 ft | 369 kts | 18° |
| 2026-04-20 02:25 | 52.67684 | 10.07274 | 24769 ft | 367 kts | 18° |
| 2026-04-20 02:26 | 52.70930 | 10.08735 | 24165 ft | 363 kts | 18° |
| 2026-04-20 02:26 | 52.72573 | 10.09475 | 23854 ft | 361 kts | 18° |
| 2026-04-20 02:26 | 52.75775 | 10.10913 | 23173 ft | 358 kts | 18° |
| 2026-04-20 02:26 | 52.78202 | 10.11716 | 22714 ft | 356 kts | 8° |
| 2026-04-20 02:27 | 52.80669 | 10.11883 | 22235 ft | 353 kts | 3° |
| 2026-04-20 02:27 | 52.83113 | 10.11953 | 21770 ft | 350 kts | 3° |
| 2026-04-20 02:27 | 52.85541 | 10.12026 | 21308 ft | 347 kts | 3° |
| 2026-04-20 02:27 | 52.87170 | 10.12079 | 20991 ft | 346 kts | 3° |
| 2026-04-20 02:28 | 52.89535 | 10.12158 | 20536 ft | 343 kts | 3° |
| 2026-04-20 02:28 | 52.91917 | 10.12238 | 20076 ft | 341 kts | 3° |
| 2026-04-20 02:28 | 52.94286 | 10.12318 | 19623 ft | 339 kts | 3° |
| 2026-04-20 02:28 | 52.96643 | 10.12397 | 19172 ft | 337 kts | 3° |
| 2026-04-20 02:29 | 52.98983 | 10.12472 | 18718 ft | 336 kts | 3° |
| 2026-04-20 02:29 | 53.01317 | 10.12547 | 18263 ft | 335 kts | 3° |
| 2026-04-20 02:29 | 53.03628 | 10.12623 | 17800 ft | 332 kts | 3° |
| 2026-04-20 02:29 | 53.05931 | 10.12700 | 17369 ft | 328 kts | 3° |
| 2026-04-20 02:30 | 53.08202 | 10.12776 | 16942 ft | 325 kts | 2° |
| 2026-04-20 02:30 | 53.10459 | 10.12854 | 16501 ft | 322 kts | 2° |
| 2026-04-20 02:30 | 53.12687 | 10.12932 | 16112 ft | 319 kts | 2° |
| 2026-04-20 02:30 | 53.14902 | 10.13006 | 15701 ft | 317 kts | 2° |
| 2026-04-20 02:31 | 53.17096 | 10.13077 | 15297 ft | 314 kts | 2° |
| 2026-04-20 02:31 | 53.19272 | 10.13145 | 14893 ft | 311 kts | 2° |
| 2026-04-20 02:31 | 53.21429 | 10.13218 | 14489 ft | 309 kts | 2° |
| 2026-04-20 02:31 | 53.23545 | 10.13293 | 14095 ft | 307 kts | 1° |
| 2026-04-20 02:32 | 53.25673 | 10.13366 | 13673 ft | 305 kts | 1° |
| 2026-04-20 02:32 | 53.27778 | 10.13435 | 13265 ft | 302 kts | 1° |
| 2026-04-20 02:32 | 53.29866 | 10.13504 | 12872 ft | 298 kts | 1° |
| 2026-04-20 02:32 | 53.31932 | 10.13573 | 12468 ft | 295 kts | 1° |
| 2026-04-20 02:33 | 53.33975 | 10.13641 | 12074 ft | 292 kts | 1° |
| 2026-04-20 02:33 | 53.35989 | 10.13912 | 11672 ft | 290 kts | 13° |
| 2026-04-20 02:33 | 53.37824 | 10.15225 | 11278 ft | 288 kts | 33° |
| 2026-04-20 02:33 | 53.39265 | 10.17538 | 10924 ft | 290 kts | 52° |
| 2026-04-20 02:34 | 53.40148 | 10.20592 | 10629 ft | 295 kts | 72° |
| 2026-04-20 02:34 | 53.40474 | 10.23999 | 10321 ft | 297 kts | 80° |
| 2026-04-20 02:34 | 53.40730 | 10.27392 | 10080 ft | 288 kts | 80° |
| 2026-04-20 02:34 | 53.40711 | 10.30716 | 9845 ft | 285 kts | 99° |
| 2026-04-20 02:35 | 53.39971 | 10.33732 | 9704 ft | 278 kts | 121° |
| 2026-04-20 02:35 | 53.38672 | 10.36006 | 9469 ft | 267 kts | 143° |
| 2026-04-20 02:35 | 53.37066 | 10.37483 | 9229 ft | 262 kts | 152° |
| 2026-04-20 02:35 | 53.35431 | 10.38853 | 9022 ft | 263 kts | 152° |
| 2026-04-20 02:36 | 53.33801 | 10.40226 | 8821 ft | 262 kts | 152° |
| 2026-04-20 02:36 | 53.32172 | 10.41601 | 8609 ft | 262 kts | 152° |
| 2026-04-20 02:36 | 53.30607 | 10.42927 | 8406 ft | 262 kts | 152° |
| 2026-04-20 02:36 | 53.28980 | 10.44304 | 8195 ft | 262 kts | 152° |
| 2026-04-20 02:37 | 53.27373 | 10.45659 | 7955 ft | 262 kts | 152° |
| 2026-04-20 02:37 | 53.25634 | 10.46634 | 7705 ft | 262 kts | 175° |
| 2026-04-20 02:37 | 53.23866 | 10.46301 | 7472 ft | 258 kts | 202° |
| 2026-04-20 02:37 | 53.22369 | 10.44767 | 7221 ft | 251 kts | 229° |
| 2026-04-20 02:38 | 53.21402 | 10.42424 | 6980 ft | 243 kts | 249° |
| 2026-04-20 02:38 | 53.20942 | 10.39788 | 6732 ft | 233 kts | 271° |
| 2026-04-20 02:38 | 53.21145 | 10.37190 | 6506 ft | 222 kts | 295° |
| 2026-04-20 02:38 | 53.21949 | 10.35068 | 6307 ft | 215 kts | 318° |
| 2026-04-20 02:39 | 53.23173 | 10.33687 | 6115 ft | 212 kts | 335° |
| 2026-04-20 02:39 | 53.24493 | 10.32579 | 5923 ft | 212 kts | 334° |
| 2026-04-20 02:39 | 53.25811 | 10.31466 | 5733 ft | 212 kts | 334° |
| 2026-04-20 02:39 | 53.27121 | 10.30353 | 5571 ft | 211 kts | 334° |
| 2026-04-20 02:40 | 53.28426 | 10.29243 | 5346 ft | 210 kts | 334° |
| 2026-04-20 02:40 | 53.29722 | 10.28142 | 5132 ft | 209 kts | 334° |
| 2026-04-20 02:40 | 53.31021 | 10.27035 | 4944 ft | 209 kts | 334° |
| 2026-04-20 02:40 | 53.32321 | 10.25928 | 4777 ft | 210 kts | 334° |
| 2026-04-20 02:41 | 53.33623 | 10.24817 | 4611 ft | 210 kts | 334° |
| 2026-04-20 02:41 | 53.34926 | 10.23708 | 4443 ft | 210 kts | 335° |
| 2026-04-20 02:41 | 53.36230 | 10.22603 | 4276 ft | 210 kts | 334° |
| 2026-04-20 02:41 | 53.37535 | 10.21494 | 4110 ft | 211 kts | 334° |
| 2026-04-20 02:42 | 53.38847 | 10.20376 | 3946 ft | 212 kts | 335° |
| 2026-04-20 02:42 | 53.40164 | 10.19250 | 3767 ft | 213 kts | 335° |
| 2026-04-20 02:42 | 53.41481 | 10.18123 | 3611 ft | 213 kts | 335° |
| 2026-04-20 02:42 | 53.42780 | 10.17011 | 3445 ft | 211 kts | 335° |
| 2026-04-20 02:43 | 53.44027 | 10.15942 | 3367 ft | 190 kts | 335° |
| 2026-04-20 02:43 | 53.45139 | 10.14987 | 3313 ft | 168 kts | 336° |
| 2026-04-20 02:43 | 53.46113 | 10.14151 | 3230 ft | 143 kts | 336° |
| 2026-04-20 02:43 | 53.46925 | 10.13450 | 3166 ft | 123 kts | 337° |
| 2026-04-20 02:44 | 53.47663 | 10.12816 | 3118 ft | 116 kts | 337° |
| 2026-04-20 02:44 | 53.48373 | 10.12205 | 3068 ft | 114 kts | 338° |
| 2026-04-20 02:44 | 53.49074 | 10.11607 | 3018 ft | 113 kts | 338° |
| 2026-04-20 02:44 | 53.49773 | 10.11010 | 2926 ft | 114 kts | 338° |
| 2026-04-20 02:45 | 53.50477 | 10.10409 | 2751 ft | 113 kts | 338° |
| 2026-04-20 02:45 | 53.51180 | 10.09807 | 2606 ft | 113 kts | 338° |
| 2026-04-20 02:45 | 53.51882 | 10.09203 | 2450 ft | 113 kts | 338° |
| 2026-04-20 02:45 | 53.52582 | 10.08603 | 2288 ft | 112 kts | 338° |
| 2026-04-20 02:46 | 53.53279 | 10.08005 | 2141 ft | 112 kts | 338° |
| 2026-04-20 02:46 | 53.53963 | 10.07418 | 1987 ft | 111 kts | 338° |
| 2026-04-20 02:46 | 53.54651 | 10.06826 | 1845 ft | 111 kts | 338° |
| 2026-04-20 02:46 | 53.55337 | 10.06237 | 1691 ft | 110 kts | 338° |
| 2026-04-20 02:47 | 53.56023 | 10.05647 | 1543 ft | 111 kts | 338° |
| 2026-04-20 02:47 | 53.56715 | 10.05052 | 1399 ft | 112 kts | 338° |
| 2026-04-20 02:47 | 53.57412 | 10.04452 | 1245 ft | 112 kts | 338° |
| 2026-04-20 02:47 | 53.58138 | 10.03831 | 1123 ft | 132 kts | 338° |
| 2026-04-20 02:48 | 53.59006 | 10.03090 | 911 ft | 145 kts | 335° |
| 2026-04-20 02:48 | 53.59911 | 10.02311 | 988 ft | 146 kts | 335° |
| 2026-04-20 02:48 | 53.60732 | 10.01598 | 861 ft | 126 kts | 336° |
| 2026-04-20 02:48 | 53.61481 | 10.00949 | 708 ft | 115 kts | 335° |
| 2026-04-20 02:49 | 53.62208 | 10.00313 | 308 ft | 117 kts | 342° |
| 2026-04-20 02:49 | 53.62935 | 9.99688 | 51 ft | 115 kts | 333° |
| 2026-04-20 02:49 | 53.63500 | 9.99196 | 51 ft | 67 kts | 331° |
| 2026-04-20 02:49 | 53.63845 | 9.98907 | 49 ft | 51 kts | 333° |
| 2026-04-20 02:50 | 53.64147 | 9.98645 | 53 ft | 47 kts | 333° |
| 2026-04-20 02:50 | 53.64421 | 9.98413 | 53 ft | 33 kts | 333° |
| 2026-04-20 02:50 | 53.64536 | 9.98374 | 54 ft | 7 kts | 356° |
| 2026-04-20 02:50 | 53.64589 | 9.98369 | 56 ft | 8 kts | 360° |
| 2026-04-20 02:51 | 53.64644 | 9.98386 | 57 ft | 9 kts | 13° |
| 2026-04-20 02:51 | 53.64692 | 9.98422 | 54 ft | 7 kts | 48° |
| 2026-04-20 02:51 | 53.64685 | 9.98510 | 55 ft | 9 kts | 135° |
| 2026-04-20 02:51 | 53.64626 | 9.98565 | 52 ft | 10 kts | 152° |
| 2026-04-20 02:52 | 53.64560 | 9.98624 | 52 ft | 12 kts | 152° |
| 2026-04-20 02:52 | 53.64473 | 9.98696 | 51 ft | 16 kts | 150° |
| 2026-04-20 02:52 | 53.64364 | 9.98791 | 53 ft | 19 kts | 153° |
| 2026-04-20 02:52 | 53.64236 | 9.98903 | 54 ft | 22 kts | 152° |
| 2026-04-20 02:53 | 53.64090 | 9.99028 | 50 ft | 25 kts | 152° |
| 2026-04-20 02:53 | 53.63927 | 9.99170 | 50 ft | 28 kts | 152° |
| 2026-04-20 02:53 | 53.63761 | 9.99356 | 49 ft | 30 kts | 134° |
| 2026-04-20 02:53 | 53.63635 | 9.99645 | 51 ft | 32 kts | 125° |
| 2026-04-20 02:54 | 53.63534 | 9.99882 | 51 ft | 19 kts | 125° |
| 2026-04-20 02:54 | 53.63453 | 10.00071 | 51 ft | 21 kts | 126° |
| 2026-04-20 02:54 | 53.63379 | 10.00189 | 51 ft | 12 kts | 162° |
| 2026-04-20 02:54 | 53.63294 | 10.00203 | 50 ft | 10 kts | 175° |
| 2026-04-20 02:55 | 53.63223 | 10.00182 | 49 ft | 12 kts | 181° |
| 2026-04-20 02:55 | 53.63132 | 10.00189 | 48 ft | 15 kts | 176° |
| 2026-04-20 02:55 | 53.63028 | 10.00139 | 47 ft | 17 kts | 214° |
| 2026-04-20 02:55 | 53.62954 | 10.00034 | 46 ft | 8 kts | 277° |
| 2026-04-20 02:56 | 53.62993 | 9.99963 | 46 ft | 9 kts | 331° |
| 2026-04-20 02:56 | 53.63058 | 9.99905 | 47 ft | 12 kts | 331° |
| 2026-04-20 02:56 | 53.63126 | 9.99903 | 48 ft | 10 kts | 46° |
| 2026-04-20 02:56 | 53.63166 | 9.99960 | 48 ft | 6 kts | 347° |
| 2026-04-20 02:57 | 53.63203 | 9.99912 | 49 ft | 0 kts | 324° |